Flight Briefing for CPX990

Departure Arrival
Alice Springs Airport (YBAS)
Click to view FAA NOTAMS
Kingsford Smith International Airport (YSSY)
Click to view FAA NOTAMS
Departure Time Arrival Time
N/A N/A
Aircraft Distance
MD-11SF 1092nm
Departure METAR Arrival METAR
YBAS 152130Z AUTO 30005KT 9999 // NCD 16/M07 Q1018 RF00.0/000.0 YSSY 152130Z 29004KT 9999 FEW035 BKN300 22/15 Q1021 NOSIG
Suggested Route
KALUG A576 PKS H319 TARAL Y59 RIVET


View recent IFR Routes data
Notes
EMPTY | NON-REVENUE REPOSITIONING LEG

Charts and Procedures

Charts for YBAS
No chart available
Charts for YSSY
No chart available

Ventusky Weather